sensor_id;sensor_type;location;lat;lon;timestamp;temperature;humidity
16392;DHT22;8305;-33.882;151.134;2023-11-19T00:00:19;25.20;99.90
16392;DHT22;8305;-33.882;151.134;2023-11-19T00:02:50;25.20;99.90
16392;DHT22;8305;-33.882;151.134;2023-11-19T00:05:21;25.20;99.90
16392;DHT22;8305;-33.882;151.134;2023-11-19T00:07:54;25.20;99.90
16392;DHT22;8305;-33.882;151.134;2023-11-19T00:10:25;25.50;99.90
16392;DHT22;8305;-33.882;151.134;2023-11-19T00:12:56;25.60;99.90
16392;DHT22;8305;-33.882;151.134;2023-11-19T00:15:27;25.80;99.90
16392;DHT22;8305;-33.882;151.134;2023-11-19T00:17:58;25.60;99.90
16392;DHT22;8305;-33.882;151.134;2023-11-19T00:20:32;25.60;99.90
16392;DHT22;8305;-33.882;151.134;2023-11-19T00:23:05;25.50;99.90
16392;DHT22;8305;-33.882;151.134;2023-11-19T00:25:36;25.70;99.90
16392;DHT22;8305;-33.882;151.134;2023-11-19T00:28:07;25.80;99.90
16392;DHT22;8305;-33.882;151.134;2023-11-19T00:30:41;25.80;99.90
16392;DHT22;8305;-33.882;151.134;2023-11-19T00:33:12;25.90;99.90
16392;DHT22;8305;-33.882;151.134;2023-11-19T00:35:43;25.90;99.90
16392;DHT22;8305;-33.882;151.134;2023-11-19T00:38:16;25.90;99.90
16392;DHT22;8305;-33.882;151.134;2023-11-19T00:40:47;26.00;99.90
16392;DHT22;8305;-33.882;151.134;2023-11-19T00:43:18;26.00;99.90
16392;DHT22;8305;-33.882;151.134;2023-11-19T00:45:50;25.90;99.90
16392;DHT22;8305;-33.882;151.134;2023-11-19T00:48:20;26.00;99.90
16392;DHT22;8305;-33.882;151.134;2023-11-19T00:50:52;26.10;99.90
16392;DHT22;8305;-33.882;151.134;2023-11-19T00:53:24;26.20;99.90
16392;DHT22;8305;-33.882;151.134;2023-11-19T00:55:55;26.40;99.90
16392;DHT22;8305;-33.882;151.134;2023-11-19T00:58:27;26.30;99.90
16392;DHT22;8305;-33.882;151.134;2023-11-19T01:00:58;26.40;99.90
16392;DHT22;8305;-33.882;151.134;2023-11-19T01:03:28;26.20;99.90
16392;DHT22;8305;-33.882;151.134;2023-11-19T01:06:00;26.10;99.90
16392;DHT22;8305;-33.882;151.134;2023-11-19T01:08:33;26.10;99.90
16392;DHT22;8305;-33.882;151.134;2023-11-19T01:11:05;26.00;99.90
16392;DHT22;8305;-33.882;151.134;2023-11-19T01:13:36;26.10;99.90
16392;DHT22;8305;-33.882;151.134;2023-11-19T01:16:07;26.10;99.90
16392;DHT22;8305;-33.882;151.134;2023-11-19T01:18:38;26.00;99.90
16392;DHT22;8305;-33.882;151.134;2023-11-19T01:21:09;26.20;99.90
16392;DHT22;8305;-33.882;151.134;2023-11-19T01:23:42;26.40;99.90
16392;DHT22;8305;-33.882;151.134;2023-11-19T01:26:13;26.40;99.90
16392;DHT22;8305;-33.882;151.134;2023-11-19T01:28:44;26.20;99.90
16392;DHT22;8305;-33.882;151.134;2023-11-19T01:31:17;26.30;99.90
16392;DHT22;8305;-33.882;151.134;2023-11-19T01:33:48;26.50;99.90
16392;DHT22;8305;-33.882;151.134;2023-11-19T01:36:18;26.40;99.90
16392;DHT22;8305;-33.882;151.134;2023-11-19T01:38:51;26.50;99.90
16392;DHT22;8305;-33.882;151.134;2023-11-19T01:41:22;26.40;99.90
16392;DHT22;8305;-33.882;151.134;2023-11-19T01:43:53;26.60;99.90
16392;DHT22;8305;-33.882;151.134;2023-11-19T01:46:24;26.70;99.90
16392;DHT22;8305;-33.882;151.134;2023-11-19T01:48:56;26.80;99.90
16392;DHT22;8305;-33.882;151.134;2023-11-19T01:51:28;26.90;99.90
16392;DHT22;8305;-33.882;151.134;2023-11-19T01:54:01;26.60;99.90
16392;DHT22;8305;-33.882;151.134;2023-11-19T01:56:33;26.40;99.90
16392;DHT22;8305;-33.882;151.134;2023-11-19T01:59:04;26.20;99.90
16392;DHT22;8305;-33.882;151.134;2023-11-19T02:01:37;26.40;99.90
16392;DHT22;8305;-33.882;151.134;2023-11-19T02:04:09;26.60;99.90
16392;DHT22;8305;-33.882;151.134;2023-11-19T02:06:43;26.60;99.90
16392;DHT22;8305;-33.882;151.134;2023-11-19T02:09:16;26.60;99.90
16392;DHT22;8305;-33.882;151.134;2023-11-19T02:11:48;26.70;99.90
16392;DHT22;8305;-33.882;151.134;2023-11-19T02:14:19;26.80;99.90
16392;DHT22;8305;-33.882;151.134;2023-11-19T02:16:53;26.90;99.90
16392;DHT22;8305;-33.882;151.134;2023-11-19T02:19:24;26.90;99.90
16392;DHT22;8305;-33.882;151.134;2023-11-19T02:21:55;27.10;99.90
16392;DHT22;8305;-33.882;151.134;2023-11-19T02:24:30;27.20;99.90
16392;DHT22;8305;-33.882;151.134;2023-11-19T02:27:06;27.10;99.90
16392;DHT22;8305;-33.882;151.134;2023-11-19T02:29:40;27.10;99.90
16392;DHT22;8305;-33.882;151.134;2023-11-19T02:32:11;27.10;99.90
16392;DHT22;8305;-33.882;151.134;2023-11-19T02:34:43;26.70;99.90
16392;DHT22;8305;-33.882;151.134;2023-11-19T02:37:14;26.60;99.90
16392;DHT22;8305;-33.882;151.134;2023-11-19T02:39:47;26.10;99.90
16392;DHT22;8305;-33.882;151.134;2023-11-19T02:42:20;25.80;99.90
16392;DHT22;8305;-33.882;151.134;2023-11-19T02:44:53;26.00;99.90
16392;DHT22;8305;-33.882;151.134;2023-11-19T02:47:24;25.90;99.90
16392;DHT22;8305;-33.882;151.134;2023-11-19T02:49:58;25.90;99.90
16392;DHT22;8305;-33.882;151.134;2023-11-19T02:52:29;26.00;99.90
16392;DHT22;8305;-33.882;151.134;2023-11-19T02:55:05;25.90;99.90
16392;DHT22;8305;-33.882;151.134;2023-11-19T02:57:38;26.00;99.90
16392;DHT22;8305;-33.882;151.134;2023-11-19T03:00:17;26.00;99.90
16392;DHT22;8305;-33.882;151.134;2023-11-19T03:02:51;25.90;99.90
16392;DHT22;8305;-33.882;151.134;2023-11-19T03:05:27;25.90;99.90
16392;DHT22;8305;-33.882;151.134;2023-11-19T03:07:59;25.80;99.90
16392;DHT22;8305;-33.882;151.134;2023-11-19T03:10:30;25.60;99.90
16392;DHT22;8305;-33.882;151.134;2023-11-19T03:13:03;25.60;99.90
16392;DHT22;8305;-33.882;151.134;2023-11-19T03:15:36;25.70;99.90
16392;DHT22;8305;-33.882;151.134;2023-11-19T03:18:07;25.80;99.90
16392;DHT22;8305;-33.882;151.134;2023-11-19T03:20:38;25.90;99.90
16392;DHT22;8305;-33.882;151.134;2023-11-19T03:23:09;25.90;99.90
16392;DHT22;8305;-33.882;151.134;2023-11-19T03:25:40;25.70;99.90
16392;DHT22;8305;-33.882;151.134;2023-11-19T03:28:11;25.80;99.90
16392;DHT22;8305;-33.882;151.134;2023-11-19T03:30:47;25.70;99.90
16392;DHT22;8305;-33.882;151.134;2023-11-19T03:33:21;25.40;99.90
16392;DHT22;8305;-33.882;151.134;2023-11-19T03:35:54;25.40;99.90
16392;DHT22;8305;-33.882;151.134;2023-11-19T03:38:25;25.40;99.90
16392;DHT22;8305;-33.882;151.134;2023-11-19T03:40:56;25.50;99.90
16392;DHT22;8305;-33.882;151.134;2023-11-19T03:43:27;25.40;99.90
16392;DHT22;8305;-33.882;151.134;2023-11-19T03:46:00;25.40;99.90
16392;DHT22;8305;-33.882;151.134;2023-11-19T03:48:33;25.40;99.90
16392;DHT22;8305;-33.882;151.134;2023-11-19T03:51:08;25.40;99.90
16392;DHT22;8305;-33.882;151.134;2023-11-19T03:53:43;25.50;99.90
16392;DHT22;8305;-33.882;151.134;2023-11-19T03:56:14;25.50;99.90
16392;DHT22;8305;-33.882;151.134;2023-11-19T03:58:45;25.40;99.90
16392;DHT22;8305;-33.882;151.134;2023-11-19T04:01:18;25.60;99.90
16392;DHT22;8305;-33.882;151.134;2023-11-19T04:03:49;25.60;99.90
16392;DHT22;8305;-33.882;151.134;2023-11-19T04:06:20;25.60;99.90
16392;DHT22;8305;-33.882;151.134;2023-11-19T04:08:51;25.70;99.90
16392;DHT22;8305;-33.882;151.134;2023-11-19T04:11:21;25.70;99.90
16392;DHT22;8305;-33.882;151.134;2023-11-19T04:13:52;25.40;99.90
16392;DHT22;8305;-33.882;151.134;2023-11-19T04:16:29;25.20;99.90
16392;DHT22;8305;-33.882;151.134;2023-11-19T04:19:00;25.00;99.90
16392;DHT22;8305;-33.882;151.134;2023-11-19T04:21:31;25.00;99.90
16392;DHT22;8305;-33.882;151.134;2023-11-19T04:24:02;25.00;99.90
16392;DHT22;8305;-33.882;151.134;2023-11-19T04:26:33;25.20;99.90
16392;DHT22;8305;-33.882;151.134;2023-11-19T04:29:04;25.10;99.90
16392;DHT22;8305;-33.882;151.134;2023-11-19T04:31:38;25.00;99.90
16392;DHT22;8305;-33.882;151.134;2023-11-19T04:34:12;25.20;99.90
16392;DHT22;8305;-33.882;151.134;2023-11-19T04:36:43;25.30;99.90
16392;DHT22;8305;-33.882;151.134;2023-11-19T04:39:14;25.30;99.90
16392;DHT22;8305;-33.882;151.134;2023-11-19T04:41:50;25.20;99.90
16392;DHT22;8305;-33.882;151.134;2023-11-19T04:44:22;24.90;99.90
16392;DHT22;8305;-33.882;151.134;2023-11-19T04:46:57;24.80;99.90
16392;DHT22;8305;-33.882;151.134;2023-11-19T04:49:28;24.80;99.90
16392;DHT22;8305;-33.882;151.134;2023-11-19T04:52:03;24.70;99.90
16392;DHT22;8305;-33.882;151.134;2023-11-19T04:54:34;24.70;99.90
16392;DHT22;8305;-33.882;151.134;2023-11-19T04:57:06;24.80;99.90
16392;DHT22;8305;-33.882;151.134;2023-11-19T04:59:37;24.80;99.90
16392;DHT22;8305;-33.882;151.134;2023-11-19T05:02:24;24.80;99.90
16392;DHT22;8305;-33.882;151.134;2023-11-19T05:04:55;24.80;99.90
16392;DHT22;8305;-33.882;151.134;2023-11-19T05:07:26;24.70;99.90
16392;DHT22;8305;-33.882;151.134;2023-11-19T05:09:57;24.70;99.90
16392;DHT22;8305;-33.882;151.134;2023-11-19T05:12:28;24.70;99.90
16392;DHT22;8305;-33.882;151.134;2023-11-19T05:14:59;24.80;99.90
16392;DHT22;8305;-33.882;151.134;2023-11-19T05:17:32;24.80;99.90
16392;DHT22;8305;-33.882;151.134;2023-11-19T05:20:05;24.80;99.90
16392;DHT22;8305;-33.882;151.134;2023-11-19T05:22:44;24.80;99.90
16392;DHT22;8305;-33.882;151.134;2023-11-19T05:25:16;24.50;99.90
16392;DHT22;8305;-33.882;151.134;2023-11-19T05:27:48;24.60;99.90
16392;DHT22;8305;-33.882;151.134;2023-11-19T05:30:19;24.60;99.90
16392;DHT22;8305;-33.882;151.134;2023-11-19T05:32:55;24.70;99.90
16392;DHT22;8305;-33.882;151.134;2023-11-19T05:35:25;24.80;99.90
16392;DHT22;8305;-33.882;151.134;2023-11-19T05:37:56;24.70;99.90
16392;DHT22;8305;-33.882;151.134;2023-11-19T05:40:27;24.80;99.90
16392;DHT22;8305;-33.882;151.134;2023-11-19T05:42:58;24.60;99.90
16392;DHT22;8305;-33.882;151.134;2023-11-19T05:45:29;24.60;99.90
16392;DHT22;8305;-33.882;151.134;2023-11-19T05:48:03;24.60;99.90
16392;DHT22;8305;-33.882;151.134;2023-11-19T05:50:34;24.50;99.90
16392;DHT22;8305;-33.882;151.134;2023-11-19T05:53:05;24.50;99.90
16392;DHT22;8305;-33.882;151.134;2023-11-19T05:55:38;24.40;99.90
16392;DHT22;8305;-33.882;151.134;2023-11-19T05:58:16;24.40;99.90
16392;DHT22;8305;-33.882;151.134;2023-11-19T06:00:49;24.40;99.90
16392;DHT22;8305;-33.882;151.134;2023-11-19T06:03:22;24.40;99.90
16392;DHT22;8305;-33.882;151.134;2023-11-19T06:05:53;24.30;99.90
16392;DHT22;8305;-33.882;151.134;2023-11-19T06:08:24;24.20;99.90
16392;DHT22;8305;-33.882;151.134;2023-11-19T06:10:55;24.10;99.90
16392;DHT22;8305;-33.882;151.134;2023-11-19T06:13:26;24.00;99.90
16392;DHT22;8305;-33.882;151.134;2023-11-19T06:15:58;24.00;99.90
16392;DHT22;8305;-33.882;151.134;2023-11-19T06:18:32;24.00;99.90
16392;DHT22;8305;-33.882;151.134;2023-11-19T06:21:07;24.10;99.90
16392;DHT22;8305;-33.882;151.134;2023-11-19T06:23:38;24.10;99.90
16392;DHT22;8305;-33.882;151.134;2023-11-19T06:26:09;24.00;99.90
16392;DHT22;8305;-33.882;151.134;2023-11-19T06:28:40;23.90;99.90
16392;DHT22;8305;-33.882;151.134;2023-11-19T06:31:11;23.90;99.90
16392;DHT22;8305;-33.882;151.134;2023-11-19T06:33:47;23.90;99.90
16392;DHT22;8305;-33.882;151.134;2023-11-19T06:36:18;23.80;99.90
16392;DHT22;8305;-33.882;151.134;2023-11-19T06:38:51;23.70;99.90
16392;DHT22;8305;-33.882;151.134;2023-11-19T06:41:23;23.60;99.90
16392;DHT22;8305;-33.882;151.134;2023-11-19T06:43:53;23.60;99.90
16392;DHT22;8305;-33.882;151.134;2023-11-19T06:46:24;23.60;99.90
16392;DHT22;8305;-33.882;151.134;2023-11-19T06:49:01;23.60;99.90
16392;DHT22;8305;-33.882;151.134;2023-11-19T06:51:31;23.50;99.90
16392;DHT22;8305;-33.882;151.134;2023-11-19T06:54:02;23.50;99.90
16392;DHT22;8305;-33.882;151.134;2023-11-19T06:56:34;23.60;99.90
16392;DHT22;8305;-33.882;151.134;2023-11-19T06:59:05;23.60;99.90
16392;DHT22;8305;-33.882;151.134;2023-11-19T07:01:36;23.50;99.90
16392;DHT22;8305;-33.882;151.134;2023-11-19T07:04:14;23.30;99.90
16392;DHT22;8305;-33.882;151.134;2023-11-19T07:06:45;23.10;99.90
16392;DHT22;8305;-33.882;151.134;2023-11-19T07:09:16;23.00;99.90
16392;DHT22;8305;-33.882;151.134;2023-11-19T07:11:47;23.00;99.90
16392;DHT22;8305;-33.882;151.134;2023-11-19T07:14:18;23.00;99.90
16392;DHT22;8305;-33.882;151.134;2023-11-19T07:16:51;23.00;99.90
16392;DHT22;8305;-33.882;151.134;2023-11-19T07:19:25;22.90;99.90
16392;DHT22;8305;-33.882;151.134;2023-11-19T07:21:56;23.00;99.90
16392;DHT22;8305;-33.882;151.134;2023-11-19T07:24:27;22.90;99.90
16392;DHT22;8305;-33.882;151.134;2023-11-19T07:26:58;22.80;99.90
16392;DHT22;8305;-33.882;151.134;2023-11-19T07:29:31;22.80;99.90
16392;DHT22;8305;-33.882;151.134;2023-11-19T07:32:02;22.70;99.90
16392;DHT22;8305;-33.882;151.134;2023-11-19T07:34:36;22.60;99.90
16392;DHT22;8305;-33.882;151.134;2023-11-19T07:37:08;22.70;99.90
16392;DHT22;8305;-33.882;151.134;2023-11-19T07:39:39;22.60;99.90
16392;DHT22;8305;-33.882;151.134;2023-11-19T07:42:10;22.50;99.90
16392;DHT22;8305;-33.882;151.134;2023-11-19T07:44:42;22.40;99.90
16392;DHT22;8305;-33.882;151.134;2023-11-19T07:47:14;22.40;99.90
16392;DHT22;8305;-33.882;151.134;2023-11-19T07:49:48;22.40;99.90
16392;DHT22;8305;-33.882;151.134;2023-11-19T07:52:18;22.30;99.90
16392;DHT22;8305;-33.882;151.134;2023-11-19T07:54:49;22.40;99.90
16392;DHT22;8305;-33.882;151.134;2023-11-19T07:57:24;22.40;99.90
16392;DHT22;8305;-33.882;151.134;2023-11-19T07:59:58;22.30;99.90
16392;DHT22;8305;-33.882;151.134;2023-11-19T08:02:29;22.20;99.90
16392;DHT22;8305;-33.882;151.134;2023-11-19T08:05:03;22.20;99.90
16392;DHT22;8305;-33.882;151.134;2023-11-19T08:07:34;22.10;99.90
16392;DHT22;8305;-33.882;151.134;2023-11-19T08:10:10;22.00;99.90
16392;DHT22;8305;-33.882;151.134;2023-11-19T08:12:44;22.00;99.90
16392;DHT22;8305;-33.882;151.134;2023-11-19T08:15:15;22.00;99.90
16392;DHT22;8305;-33.882;151.134;2023-11-19T08:17:46;21.90;99.90
16392;DHT22;8305;-33.882;151.134;2023-11-19T08:20:22;21.90;99.90
16392;DHT22;8305;-33.882;151.134;2023-11-19T08:22:52;21.80;99.90
16392;DHT22;8305;-33.882;151.134;2023-11-19T08:25:23;21.80;99.90
16392;DHT22;8305;-33.882;151.134;2023-11-19T08:27:54;21.80;99.90
16392;DHT22;8305;-33.882;151.134;2023-11-19T08:30:25;21.70;99.90
16392;DHT22;8305;-33.882;151.134;2023-11-19T08:32:57;21.70;99.90
16392;DHT22;8305;-33.882;151.134;2023-11-19T08:35:33;21.60;99.90
16392;DHT22;8305;-33.882;151.134;2023-11-19T08:38:05;21.60;99.90
16392;DHT22;8305;-33.882;151.134;2023-11-19T08:40:36;21.60;99.90
16392;DHT22;8305;-33.882;151.134;2023-11-19T08:43:07;22.00;99.90
16392;DHT22;8305;-33.882;151.134;2023-11-19T08:45:38;21.50;99.90
16392;DHT22;8305;-33.882;151.134;2023-11-19T08:48:09;21.40;99.90
16392;DHT22;8305;-33.882;151.134;2023-11-19T08:50:42;21.40;99.90
16392;DHT22;8305;-33.882;151.134;2023-11-19T08:53:13;21.40;99.90
16392;DHT22;8305;-33.882;151.134;2023-11-19T08:55:44;21.40;99.90
16392;DHT22;8305;-33.882;151.134;2023-11-19T08:58:15;21.30;99.90
16392;DHT22;8305;-33.882;151.134;2023-11-19T09:00:46;21.30;99.90
16392;DHT22;8305;-33.882;151.134;2023-11-19T09:03:20;21.30;99.90
16392;DHT22;8305;-33.882;151.134;2023-11-19T09:05:52;21.30;99.90
16392;DHT22;8305;-33.882;151.134;2023-11-19T09:08:24;21.30;99.90
16392;DHT22;8305;-33.882;151.134;2023-11-19T09:10:55;21.30;99.90
16392;DHT22;8305;-33.882;151.134;2023-11-19T09:13:25;21.20;99.90
16392;DHT22;8305;-33.882;151.134;2023-11-19T09:15:56;21.20;99.90
16392;DHT22;8305;-33.882;151.134;2023-11-19T09:18:31;21.20;99.90
16392;DHT22;8305;-33.882;151.134;2023-11-19T09:21:05;21.20;99.90
16392;DHT22;8305;-33.882;151.134;2023-11-19T09:23:36;21.20;99.90
16392;DHT22;8305;-33.882;151.134;2023-11-19T09:26:07;21.20;99.90
16392;DHT22;8305;-33.882;151.134;2023-11-19T09:28:39;21.20;99.90
16392;DHT22;8305;-33.882;151.134;2023-11-19T09:31:16;21.20;99.90
16392;DHT22;8305;-33.882;151.134;2023-11-19T09:33:46;21.20;99.90
16392;DHT22;8305;-33.882;151.134;2023-11-19T09:36:19;21.20;99.90
16392;DHT22;8305;-33.882;151.134;2023-11-19T09:38:50;21.20;99.90
16392;DHT22;8305;-33.882;151.134;2023-11-19T09:41:21;21.10;99.90
16392;DHT22;8305;-33.882;151.134;2023-11-19T09:43:55;21.10;99.90
16392;DHT22;8305;-33.882;151.134;2023-11-19T09:46:27;21.10;99.90
16392;DHT22;8305;-33.882;151.134;2023-11-19T09:48:59;21.10;99.90
16392;DHT22;8305;-33.882;151.134;2023-11-19T09:51:33;21.20;99.90
16392;DHT22;8305;-33.882;151.134;2023-11-19T09:54:05;21.10;99.90
16392;DHT22;8305;-33.882;151.134;2023-11-19T09:56:37;21.10;99.90
16392;DHT22;8305;-33.882;151.134;2023-11-19T09:59:09;21.10;99.90
16392;DHT22;8305;-33.882;151.134;2023-11-19T10:01:41;21.10;99.90
16392;DHT22;8305;-33.882;151.134;2023-11-19T10:04:19;21.00;99.90
16392;DHT22;8305;-33.882;151.134;2023-11-19T10:06:52;21.10;99.90
16392;DHT22;8305;-33.882;151.134;2023-11-19T10:09:23;21.00;99.90
16392;DHT22;8305;-33.882;151.134;2023-11-19T10:11:55;21.00;99.90
16392;DHT22;8305;-33.882;151.134;2023-11-19T10:14:26;21.00;99.90
16392;DHT22;8305;-33.882;151.134;2023-11-19T10:16:58;21.00;99.90
16392;DHT22;8305;-33.882;151.134;2023-11-19T10:19:33;21.00;99.90
16392;DHT22;8305;-33.882;151.134;2023-11-19T10:22:07;21.00;99.90
16392;DHT22;8305;-33.882;151.134;2023-11-19T10:24:39;21.00;99.90
16392;DHT22;8305;-33.882;151.134;2023-11-19T10:27:10;21.00;99.90
16392;DHT22;8305;-33.882;151.134;2023-11-19T10:29:45;21.00;99.90
16392;DHT22;8305;-33.882;151.134;2023-11-19T10:32:16;20.90;99.90
16392;DHT22;8305;-33.882;151.134;2023-11-19T10:34:47;20.90;99.90
16392;DHT22;8305;-33.882;151.134;2023-11-19T10:37:35;20.90;99.90
16392;DHT22;8305;-33.882;151.134;2023-11-19T10:40:06;20.90;99.90
16392;DHT22;8305;-33.882;151.134;2023-11-19T10:42:38;20.90;99.90
16392;DHT22;8305;-33.882;151.134;2023-11-19T10:45:23;20.90;99.90
16392;DHT22;8305;-33.882;151.134;2023-11-19T10:47:55;20.90;99.90
16392;DHT22;8305;-33.882;151.134;2023-11-19T10:50:27;20.90;99.90
16392;DHT22;8305;-33.882;151.134;2023-11-19T10:53:00;20.80;99.90
16392;DHT22;8305;-33.882;151.134;2023-11-19T10:55:32;20.80;99.90
16392;DHT22;8305;-33.882;151.134;2023-11-19T10:58:04;20.90;99.90
16392;DHT22;8305;-33.882;151.134;2023-11-19T11:00:39;20.80;99.90
16392;DHT22;8305;-33.882;151.134;2023-11-19T11:03:16;20.80;99.90
16392;DHT22;8305;-33.882;151.134;2023-11-19T11:05:50;20.80;99.90
16392;DHT22;8305;-33.882;151.134;2023-11-19T11:08:23;20.80;99.90
16392;DHT22;8305;-33.882;151.134;2023-11-19T11:10:55;20.80;99.90
16392;DHT22;8305;-33.882;151.134;2023-11-19T11:13:26;20.80;99.90
16392;DHT22;8305;-33.882;151.134;2023-11-19T11:15:58;20.80;99.90
16392;DHT22;8305;-33.882;151.134;2023-11-19T11:18:29;20.80;99.90
16392;DHT22;8305;-33.882;151.134;2023-11-19T11:21:02;20.70;99.90
16392;DHT22;8305;-33.882;151.134;2023-11-19T11:27:01;20.70;99.90
16392;DHT22;8305;-33.882;151.134;2023-11-19T11:29:41;20.80;99.90
16392;DHT22;8305;-33.882;151.134;2023-11-19T11:32:21;20.70;99.90
16392;DHT22;8305;-33.882;151.134;2023-11-19T11:35:15;20.70;99.90
16392;DHT22;8305;-33.882;151.134;2023-11-19T11:37:57;20.70;99.90
16392;DHT22;8305;-33.882;151.134;2023-11-19T11:40:33;20.40;99.90
16392;DHT22;8305;-33.882;151.134;2023-11-19T11:43:04;20.70;99.90
16392;DHT22;8305;-33.882;151.134;2023-11-19T11:45:55;20.70;99.90
16392;DHT22;8305;-33.882;151.134;2023-11-19T11:48:31;20.70;99.90
16392;DHT22;8305;-33.882;151.134;2023-11-19T11:51:05;20.70;99.90
16392;DHT22;8305;-33.882;151.134;2023-11-19T11:53:36;20.70;99.90
16392;DHT22;8305;-33.882;151.134;2023-11-19T11:56:09;20.60;99.90
16392;DHT22;8305;-33.882;151.134;2023-11-19T11:58:41;20.60;99.90
16392;DHT22;8305;-33.882;151.134;2023-11-19T12:01:16;20.60;99.90
16392;DHT22;8305;-33.882;151.134;2023-11-19T12:03:51;20.60;99.90
16392;DHT22;8305;-33.882;151.134;2023-11-19T12:06:23;20.60;99.90
16392;DHT22;8305;-33.882;151.134;2023-11-19T12:08:55;20.60;99.90
16392;DHT22;8305;-33.882;151.134;2023-11-19T12:11:32;20.60;99.90
16392;DHT22;8305;-33.882;151.134;2023-11-19T12:14:05;20.60;99.90
16392;DHT22;8305;-33.882;151.134;2023-11-19T12:16:36;20.60;99.90
16392;DHT22;8305;-33.882;151.134;2023-11-19T12:19:07;20.50;99.90
16392;DHT22;8305;-33.882;151.134;2023-11-19T12:21:38;20.50;99.90
16392;DHT22;8305;-33.882;151.134;2023-11-19T12:24:10;20.50;99.90
16392;DHT22;8305;-33.882;151.134;2023-11-19T12:26:44;20.50;99.90
16392;DHT22;8305;-33.882;151.134;2023-11-19T12:29:17;20.50;99.90
16392;DHT22;8305;-33.882;151.134;2023-11-19T12:31:55;20.50;99.90
16392;DHT22;8305;-33.882;151.134;2023-11-19T12:34:30;20.40;99.90
16392;DHT22;8305;-33.882;151.134;2023-11-19T12:37:05;20.40;99.90
16392;DHT22;8305;-33.882;151.134;2023-11-19T12:39:37;20.40;99.90
16392;DHT22;8305;-33.882;151.134;2023-11-19T12:42:10;20.40;99.90
16392;DHT22;8305;-33.882;151.134;2023-11-19T12:44:55;20.30;99.90
16392;DHT22;8305;-33.882;151.134;2023-11-19T12:47:26;20.30;99.90
16392;DHT22;8305;-33.882;151.134;2023-11-19T12:50:00;20.20;99.90
16392;DHT22;8305;-33.882;151.134;2023-11-19T12:52:32;20.20;99.90
16392;DHT22;8305;-33.882;151.134;2023-11-19T12:55:03;20.20;99.90
16392;DHT22;8305;-33.882;151.134;2023-11-19T12:57:42;20.20;99.90
16392;DHT22;8305;-33.882;151.134;2023-11-19T13:00:20;20.20;99.90
16392;DHT22;8305;-33.882;151.134;2023-11-19T13:02:52;20.20;99.90
16392;DHT22;8305;-33.882;151.134;2023-11-19T13:05:25;20.20;99.90
16392;DHT22;8305;-33.882;151.134;2023-11-19T13:08:03;20.20;99.90
16392;DHT22;8305;-33.882;151.134;2023-11-19T13:10:50;20.10;99.90
16392;DHT22;8305;-33.882;151.134;2023-11-19T13:13:23;20.10;99.90
16392;DHT22;8305;-33.882;151.134;2023-11-19T13:15:54;20.00;99.90
16392;DHT22;8305;-33.882;151.134;2023-11-19T13:18:31;20.00;99.90
16392;DHT22;8305;-33.882;151.134;2023-11-19T13:21:05;20.00;99.90
16392;DHT22;8305;-33.882;151.134;2023-11-19T13:23:36;20.00;99.90
16392;DHT22;8305;-33.882;151.134;2023-11-19T13:26:07;20.00;99.90
16392;DHT22;8305;-33.882;151.134;2023-11-19T13:28:40;20.00;99.90
16392;DHT22;8305;-33.882;151.134;2023-11-19T13:31:11;20.00;99.90
16392;DHT22;8305;-33.882;151.134;2023-11-19T13:33:42;20.00;99.90
16392;DHT22;8305;-33.882;151.134;2023-11-19T13:36:13;20.00;99.90
16392;DHT22;8305;-33.882;151.134;2023-11-19T13:38:44;20.00;99.90
16392;DHT22;8305;-33.882;151.134;2023-11-19T13:41:15;20.00;99.90
16392;DHT22;8305;-33.882;151.134;2023-11-19T13:43:48;20.00;99.90
16392;DHT22;8305;-33.882;151.134;2023-11-19T13:46:19;20.00;99.90
16392;DHT22;8305;-33.882;151.134;2023-11-19T13:48:50;20.00;99.90
16392;DHT22;8305;-33.882;151.134;2023-11-19T13:51:21;20.00;99.90
16392;DHT22;8305;-33.882;151.134;2023-11-19T13:53:52;20.10;99.90
16392;DHT22;8305;-33.882;151.134;2023-11-19T13:56:23;20.10;99.90
16392;DHT22;8305;-33.882;151.134;2023-11-19T13:58:57;20.10;99.90
16392;DHT22;8305;-33.882;151.134;2023-11-19T14:01:28;20.10;99.90
16392;DHT22;8305;-33.882;151.134;2023-11-19T14:03:59;20.10;99.90
16392;DHT22;8305;-33.882;151.134;2023-11-19T14:06:30;20.10;99.90
16392;DHT22;8305;-33.882;151.134;2023-11-19T14:09:01;20.10;99.90
16392;DHT22;8305;-33.882;151.134;2023-11-19T14:11:34;20.10;99.90
16392;DHT22;8305;-33.882;151.134;2023-11-19T14:14:07;20.00;99.90
16392;DHT22;8305;-33.882;151.134;2023-11-19T14:16:38;20.00;99.90
16392;DHT22;8305;-33.882;151.134;2023-11-19T14:19:08;20.00;99.90
16392;DHT22;8305;-33.882;151.134;2023-11-19T14:21:42;20.10;99.90
16392;DHT22;8305;-33.882;151.134;2023-11-19T14:24:15;20.10;99.90
16392;DHT22;8305;-33.882;151.134;2023-11-19T14:26:47;20.10;99.90
16392;DHT22;8305;-33.882;151.134;2023-11-19T14:29:21;20.00;99.90
16392;DHT22;8305;-33.882;151.134;2023-11-19T14:31:53;20.00;99.90
16392;DHT22;8305;-33.882;151.134;2023-11-19T14:34:24;20.00;99.90
16392;DHT22;8305;-33.882;151.134;2023-11-19T14:36:55;20.00;99.90
16392;DHT22;8305;-33.882;151.134;2023-11-19T14:39:26;20.00;99.90
16392;DHT22;8305;-33.882;151.134;2023-11-19T14:41:58;20.00;99.90
16392;DHT22;8305;-33.882;151.134;2023-11-19T14:44:34;20.00;99.90
16392;DHT22;8305;-33.882;151.134;2023-11-19T14:47:04;20.00;99.90
16392;DHT22;8305;-33.882;151.134;2023-11-19T14:49:36;19.90;99.90
16392;DHT22;8305;-33.882;151.134;2023-11-19T14:52:07;20.00;99.90
16392;DHT22;8305;-33.882;151.134;2023-11-19T14:54:40;19.90;99.90
16392;DHT22;8305;-33.882;151.134;2023-11-19T14:57:11;19.90;99.90
16392;DHT22;8305;-33.882;151.134;2023-11-19T14:59:44;19.90;99.90
16392;DHT22;8305;-33.882;151.134;2023-11-19T15:02:14;19.90;99.90
16392;DHT22;8305;-33.882;151.134;2023-11-19T15:04:46;19.90;99.90
16392;DHT22;8305;-33.882;151.134;2023-11-19T15:07:16;19.90;99.90
16392;DHT22;8305;-33.882;151.134;2023-11-19T15:09:47;19.90;99.90
16392;DHT22;8305;-33.882;151.134;2023-11-19T15:12:18;19.90;99.90
16392;DHT22;8305;-33.882;151.134;2023-11-19T15:14:52;19.90;99.90
16392;DHT22;8305;-33.882;151.134;2023-11-19T15:17:23;19.90;99.90
16392;DHT22;8305;-33.882;151.134;2023-11-19T15:19:53;19.90;99.90
16392;DHT22;8305;-33.882;151.134;2023-11-19T15:22:24;19.80;99.90
16392;DHT22;8305;-33.882;151.134;2023-11-19T15:24:55;19.80;99.90
16392;DHT22;8305;-33.882;151.134;2023-11-19T15:27:26;19.80;99.90
16392;DHT22;8305;-33.882;151.134;2023-11-19T15:29:59;19.70;99.90
16392;DHT22;8305;-33.882;151.134;2023-11-19T15:32:30;19.70;99.90
16392;DHT22;8305;-33.882;151.134;2023-11-19T15:35:01;19.70;99.90
16392;DHT22;8305;-33.882;151.134;2023-11-19T15:37:32;19.70;99.90